Weather History for Kankakee, IL

Change the Weather History Date:

Wednesday, August 7, 2013

  Actual Average Record
Temperature  
Mean Temperature 76 °F -  
Max Temperature 85 °F 81 °F 96 °F (2007)
Min Temperature 69 °F 60 °F 33 °F (2002)
Cooling Degree Days 12    
Growing Degree Days 26 (Base 50)    
Moisture  
Dew Point 72 °F    
Average Humidity 88    
Maximum Humidity 97    
Minimum Humidity 74    
Precipitation  
Precipitation 0.05 in - - ()
Sea Level Pressure  
Sea Level Pressure 29.87 in    
Wind  
Wind Speed 7 mph (SSW)    
Max Wind Speed 12 mph    
Max Gust Speed -    
Visibility 8 miles    
Events Rain    
Averages and records for this station are not official NWS values.
T = Trace of Precipitation, MM = Missing Value Source: NWS Daily Summary

Daily Weather History Graph

Daily Weather History Graph

Search for Another Location

Airport:

Trip Planner

Search our weather history database for the weather conditions in past years. The results will help you decide how hot, cold, wet, or windy it might be!

Date:

Astronomy

Aug. 07, 2013 Rise Set
Actual Time 5:53 AM CDT 8:00 PM CDT
Civil Twilight 5:23 AM CDT 8:30 PM CDT
Nautical Twilight 4:45 AM CDT 9:07 PM CDT
Astronomical Twilight 4:05 AM CDT 9:47 PM CDT
Moon 6:42 AM CDT (8/7) 8:06 PM CDT (8/7)
Length of Visible Light 15h 07m
Length of Day
14h 06m
New Moon, 1% of the Moon is Illuminated
Aug 7
New Moon
Aug 14
First Quarter
Aug 20
Full
Aug 28
Last Quarter
Sep 5
New

Hourly Weather History & Observations

Time (CDT) Temp. Heat Index Dew Point Humidity Pressure Visibility Wind Dir Wind Speed Gust Speed Precip Events Conditions
12:15 AM 71.8 °F - 69.8 °F 93% 29.88 in 7.0 mi South 6.9 mph - N/A   Clear
12:35 AM 71.6 °F - 69.8 °F 94% 29.88 in 7.0 mi South 6.9 mph - N/A   Clear
12:55 AM 71.1 °F - 69.8 °F 96% 29.88 in 7.0 mi South 6.9 mph - N/A   Scattered Clouds
1:15 AM 71.6 °F - 69.8 °F 94% 29.88 in 7.0 mi SSW 5.8 mph - N/A   Clear
1:35 AM 71.6 °F - 69.8 °F 94% 29.87 in 7.0 mi South 5.8 mph - N/A   Scattered Clouds
1:55 AM 71.1 °F - 69.8 °F 96% 29.87 in 7.0 mi South 5.8 mph - N/A   Clear
2:15 AM 71.1 °F - 69.8 °F 96% 29.86 in 5.0 mi South 6.9 mph - N/A   Clear
2:35 AM 70.9 °F - 70.0 °F 97% 29.85 in 5.0 mi South 8.1 mph - N/A   Clear
2:55 AM 71.1 °F - 70.0 °F 96% 29.86 in 5.0 mi SSW 6.9 mph - N/A   Clear
3:15 AM 71.1 °F - 70.0 °F 96% 29.84 in 5.0 mi SSW 4.6 mph - N/A   Clear
3:35 AM 70.9 °F - 69.8 °F 96% 29.84 in 5.0 mi SSW 6.9 mph - N/A   Clear
3:55 AM 70.9 °F - 69.8 °F 96% 29.84 in 5.0 mi SSW 5.8 mph - N/A   Clear
4:15 AM 70.9 °F - 69.8 °F 96% 29.84 in 5.0 mi SSW 6.9 mph - N/A   Clear
4:35 AM 70.9 °F - 69.4 °F 95% 29.85 in 5.0 mi SSW 5.8 mph - N/A   Clear
4:55 AM 70.3 °F - 69.1 °F 96% 29.85 in 5.0 mi SSW 5.8 mph - N/A   Clear
5:15 AM 70.2 °F - 68.9 °F 96% 29.86 in 5.0 mi SSW 5.8 mph - N/A   Clear
5:35 AM 70.0 °F - 68.9 °F 96% 29.86 in 7.0 mi SSW 5.8 mph - N/A   Clear
5:55 AM 69.8 °F - 68.9 °F 97% 29.85 in 5.0 mi SSW 5.8 mph - N/A   Clear
6:15 AM 69.8 °F - 68.7 °F 96% 29.85 in 5.0 mi South 6.9 mph - N/A   Clear
6:35 AM 69.8 °F - 68.9 °F 97% 29.85 in 4.0 mi SSW 5.8 mph - N/A   Clear
6:55 AM 70.3 °F - 69.1 °F 96% 29.86 in 5.0 mi SSW 6.9 mph - N/A   Clear
7:15 AM 71.6 °F - 69.8 °F 94% 29.85 in 7.0 mi SW 5.8 mph - N/A   Clear
7:35 AM 73.4 °F - 70.7 °F 91% 29.85 in 10.0 mi WSW 4.6 mph - N/A   Clear
7:55 AM 73.4 °F - 70.9 °F 92% 29.86 in 10.0 mi SW 5.8 mph - N/A   Clear
8:15 AM 74.8 °F - 71.6 °F 90% 29.87 in 10.0 mi SSW 5.8 mph - N/A   Clear
8:35 AM 75.9 °F - 72.1 °F 88% 29.86 in 10.0 mi SSW 8.1 mph - N/A   Scattered Clouds
8:55 AM 75.9 °F - 72.1 °F 88% 29.87 in 10.0 mi SW 10.4 mph - N/A   Mostly Cloudy
9:15 AM 77.0 °F - 72.5 °F 86% 29.87 in 10.0 mi SW 9.2 mph - N/A   Overcast
9:35 AM 76.6 °F - 72.5 °F 87% 29.87 in 10.0 mi SSW 8.1 mph - N/A   Overcast
9:55 AM 77.2 °F - 72.7 °F 86% 29.87 in 10.0 mi SSW 8.1 mph - N/A   Overcast
10:15 AM 78.3 °F - 73.0 °F 84% 29.87 in 10.0 mi SSW 8.1 mph - N/A   Mostly Cloudy
10:35 AM 81.5 °F 87.6 °F 74.7 °F 80% 29.87 in 10.0 mi South 9.2 mph - N/A   Mostly Cloudy
10:55 AM 81.3 °F 87.2 °F 74.7 °F 80% 29.87 in 10.0 mi SSW 8.1 mph - N/A   Mostly Cloudy
11:15 AM 82.4 °F 89.2 °F 75.0 °F 78% 29.87 in 10.0 mi South 5.8 mph - N/A   Overcast
11:35 AM 81.7 °F 87.8 °F 74.5 °F 79% 29.87 in 10.0 mi SW 5.8 mph - N/A   Overcast
11:55 AM 82.2 °F 88.8 °F 74.7 °F 78% 29.87 in 10.0 mi SW 5.8 mph - N/A   Overcast
12:15 PM 83.8 °F 92.1 °F 75.7 °F 76% 29.86 in 10.0 mi South 8.1 mph - N/A   Overcast
12:35 PM 84.6 °F 93.9 °F 76.3 °F 76% 29.86 in 10.0 mi South 5.8 mph - N/A   Mostly Cloudy
12:55 PM 83.3 °F 91.1 °F 75.6 °F 77% 29.85 in 10.0 mi South 6.9 mph - N/A   Mostly Cloudy
1:15 PM 82.4 °F 91.8 °F 78.1 °F 87% 29.85 in 7.0 mi South 8.1 mph - N/A Rain Light Rain
1:35 PM 81.5 °F 88.0 °F 75.6 °F 82% 29.85 in 10.0 mi SSW 10.4 mph - N/A   Overcast
1:55 PM 81.0 °F 86.3 °F 74.3 °F 80% 29.84 in 10.0 mi SSW 6.9 mph - N/A   Scattered Clouds
2:15 PM 81.5 °F 88.0 °F 75.4 °F 82% 29.85 in 10.0 mi SSW 8.1 mph - N/A   Clear
2:35 PM 81.0 °F 87.1 °F 75.7 °F 84% 29.85 in 10.0 mi SSW 5.8 mph - N/A   Clear
2:55 PM 79.7 °F - 75.9 °F 88% 29.85 in 5.0 mi SSW 6.9 mph - 0.01 in Rain Rain
3:15 PM 80.6 °F 86.9 °F 76.6 °F 88% 29.85 in 7.0 mi SSW 6.9 mph - N/A   Mostly Cloudy
3:35 PM 81.5 °F 88.5 °F 76.1 °F 84% 29.84 in 10.0 mi South 10.4 mph - N/A   Scattered Clouds
3:55 PM 79.9 °F - 76.8 °F 90% 29.84 in 2.5 mi SSW 11.5 mph - 0.04 in Rain Rain
4:15 PM 80.8 °F 87.2 °F 76.5 °F 87% 29.84 in 7.0 mi SSW 10.4 mph - N/A   Overcast
4:35 PM 81.9 °F 89.2 °F 76.3 °F 83% 29.84 in 7.0 mi SW 8.1 mph - N/A   Overcast
4:55 PM 83.1 °F 91.6 °F 76.3 °F 80% 29.84 in 10.0 mi SSW 11.5 mph - N/A   Scattered Clouds
5:15 PM 83.5 °F 91.9 °F 75.9 °F 78% 29.84 in 10.0 mi SSW 10.4 mph - N/A   Clear
5:35 PM 83.3 °F 91.4 °F 75.9 °F 78% 29.84 in 10.0 mi SW 9.2 mph - N/A   Clear
5:55 PM 82.2 °F 88.3 °F 73.9 °F 76% 29.85 in 10.0 mi SSW 5.8 mph - N/A   Scattered Clouds
6:15 PM 82.8 °F 89.8 °F 74.8 °F 77% 29.85 in 10.0 mi SSW 5.8 mph - N/A   Mostly Cloudy
6:35 PM 81.9 °F 87.0 °F 73.0 °F 74% 29.85 in 10.0 mi WSW 5.8 mph - N/A   Scattered Clouds
6:55 PM 81.0 °F 85.4 °F 72.5 °F 75% 29.86 in 10.0 mi WSW 5.8 mph - N/A   Clear
7:15 PM 79.2 °F - 72.7 °F 80% 29.86 in 10.0 mi SW 4.6 mph - N/A   Clear
7:35 PM 77.9 °F - 72.1 °F 82% 29.87 in 10.0 mi SW 5.8 mph - N/A   Scattered Clouds
7:55 PM 75.9 °F - 71.6 °F 86% 29.87 in 10.0 mi SW 5.8 mph - N/A   Scattered Clouds
8:15 PM 74.1 °F - 71.1 °F 90% 29.87 in 10.0 mi SSW 4.6 mph - N/A   Scattered Clouds
8:35 PM 74.5 °F - 71.6 °F 91% 29.89 in 10.0 mi NNW 8.1 mph - N/A   Mostly Cloudy
8:55 PM 76.5 °F - 71.1 °F 83% 29.89 in 10.0 mi NW 3.5 mph - N/A   Mostly Cloudy
9:15 PM 75.2 °F - 71.8 °F 89% 29.90 in 10.0 mi ENE 8.1 mph - N/A   Scattered Clouds
9:35 PM 73.8 °F - 71.8 °F 93% 29.92 in 10.0 mi NE 6.9 mph - N/A   Mostly Cloudy
9:55 PM 73.6 °F - 70.2 °F 89% 29.92 in 10.0 mi NE 10.4 mph - N/A   Mostly Cloudy
10:15 PM 72.7 °F - 69.1 °F 88% 29.93 in 10.0 mi NE 8.1 mph - N/A   Scattered Clouds
10:35 PM 72.0 °F - 68.9 °F 90% 29.93 in 10.0 mi NNE 8.1 mph - N/A   Clear
10:55 PM 71.4 °F - 68.9 °F 92% 29.94 in 10.0 mi NNE 9.2 mph - N/A   Clear
11:15 PM 70.9 °F - 68.9 °F 93% 29.94 in 7.0 mi NNE 8.1 mph - N/A   Mostly Cloudy
11:35 PM 70.2 °F - 66.9 °F 89% 29.95 in 10.0 mi NE 9.2 mph - N/A   Overcast
11:55 PM 69.4 °F - 66.2 °F 89% 29.95 in 10.0 mi NNE 4.6 mph - N/A   Scattered Clouds